createdAt,value
2023-03-26T00:00:49.029Z,69.77539063
2023-03-26T00:01:49.559Z,69.87915039
2023-03-26T00:02:50.169Z,69.67163086
2023-03-26T00:03:50.599Z,69.77539063
2023-03-26T00:04:51.076Z,69.87915039
2023-03-26T00:05:52.298Z,69.8425293
2023-03-26T00:07:22.708Z,69.77539063
2023-03-26T00:08:23.311Z,69.77539063
2023-03-26T00:09:23.639Z,69.98291016
2023-03-26T00:10:24.146Z,69.98291016
2023-03-26T00:11:24.660Z,70.08056641
2023-03-26T00:12:25.138Z,70.18432617
2023-03-26T00:13:25.727Z,70.3918457
2023-03-26T00:14:26.101Z,70.49560547
2023-03-26T00:15:26.523Z,70.49560547
2023-03-26T00:16:27.160Z,70.28808594
2023-03-26T00:17:27.677Z,70.28808594
2023-03-26T00:18:28.232Z,70.49560547
2023-03-26T00:19:28.667Z,70.59936523
2023-03-26T00:20:29.122Z,70.69702148
2023-03-26T00:21:29.556Z,70.59936523
2023-03-26T00:22:30.022Z,70.69702148
2023-03-26T00:23:30.605Z,70.80078125
2023-03-26T00:24:31.074Z,70.69702148
2023-03-26T00:25:31.560Z,70.59936523
2023-03-26T00:26:31.987Z,70.49560547
2023-03-26T00:27:32.530Z,70.69702148
2023-03-26T00:28:33.013Z,70.80078125
2023-03-26T00:29:33.509Z,70.80078125
2023-03-26T00:30:34.134Z,70.90454102
2023-03-26T00:31:34.626Z,70.97167969
2023-03-26T00:32:35.038Z,70.66650391
2023-03-26T00:33:35.521Z,70.56274414
2023-03-26T00:34:36.023Z,70.25756836
2023-03-26T00:35:36.492Z,69.94628906
2023-03-26T00:36:36.945Z,69.74487305
2023-03-26T00:37:37.437Z,69.74487305
2023-03-26T00:38:37.989Z,69.74487305
2023-03-26T00:39:38.331Z,69.74487305
2023-03-26T00:40:38.849Z,69.64111328
2023-03-26T00:41:39.305Z,69.8425293
2023-03-26T00:42:39.809Z,70.05004883
2023-03-26T00:43:40.334Z,70.15380859
2023-03-26T00:44:40.873Z,70.36132813
2023-03-26T00:45:41.398Z,70.45898438
2023-03-26T00:46:41.950Z,70.36132813
2023-03-26T00:47:42.419Z,70.25756836
2023-03-26T00:48:45.841Z,70.36132813
2023-03-26T00:49:43.321Z,70.05004883
2023-03-26T00:50:43.832Z,69.74487305
2023-03-26T00:51:44.305Z,69.64111328
2023-03-26T00:52:44.825Z,69.74487305
2023-03-26T00:53:45.374Z,69.64111328
2023-03-26T00:54:46.051Z,69.64111328
2023-03-26T00:55:46.630Z,69.94628906
2023-03-26T00:56:47.121Z,69.94628906
2023-03-26T00:57:47.521Z,69.74487305
2023-03-26T00:58:48.116Z,69.8425293
2023-03-26T00:59:48.620Z,70.05004883
2023-03-26T01:00:49.098Z,70.36132813
2023-03-26T01:01:49.670Z,70.25756836
2023-03-26T01:02:50.158Z,70.15380859
2023-03-26T01:04:05.226Z,70.56274414
2023-03-26T01:05:21.675Z,70.45898438
2023-03-26T01:06:22.273Z,70.36132813
2023-03-26T01:07:22.884Z,70.56274414
2023-03-26T01:08:23.409Z,70.56274414
2023-03-26T01:09:24.149Z,70.45898438
2023-03-26T01:10:24.638Z,70.36132813
2023-03-26T01:11:25.163Z,70.15380859
2023-03-26T01:12:25.649Z,70.05004883
2023-03-26T01:13:26.094Z,70.25756836
2023-03-26T01:14:26.576Z,70.15380859
2023-03-26T01:15:27.187Z,70.25756836
2023-03-26T01:16:27.555Z,70.15380859
2023-03-26T01:17:28.080Z,69.70825195
2023-03-26T01:18:28.505Z,69.6105957
2023-03-26T01:19:29.050Z,69.6105957
2023-03-26T01:20:29.483Z,69.64111328
2023-03-26T01:21:30.001Z,69.74487305
2023-03-26T01:22:30.443Z,69.74487305
2023-03-26T01:23:30.889Z,69.94628906
2023-03-26T01:24:31.472Z,70.15380859
2023-03-26T01:25:31.846Z,70.25756836
2023-03-26T01:26:32.582Z,70.36132813
2023-03-26T01:27:33.044Z,70.45898438
2023-03-26T01:28:33.586Z,70.25756836
2023-03-26T01:29:34.255Z,70.15380859
2023-03-26T01:30:34.593Z,70.15380859
2023-03-26T01:31:35.004Z,70.25756836
2023-03-26T01:32:35.618Z,70.36132813
2023-03-26T01:33:36.049Z,70.36132813
2023-03-26T01:34:36.479Z,70.05004883
2023-03-26T01:35:36.885Z,70.01953125
2023-03-26T01:36:37.327Z,70.22094727
2023-03-26T01:37:37.836Z,70.45898438
2023-03-26T01:38:38.319Z,70.4284668
2023-03-26T01:39:38.978Z,70.4284668
2023-03-26T01:40:39.230Z,70.12329102
2023-03-26T01:41:39.700Z,70.25756836
2023-03-26T01:42:40.133Z,70.25756836
2023-03-26T01:43:40.669Z,70.45898438
2023-03-26T01:44:41.174Z,70.56274414
2023-03-26T01:45:41.596Z,70.87402344
2023-03-26T01:46:42.049Z,70.87402344
2023-03-26T01:47:42.539Z,71.17919922
2023-03-26T01:48:42.968Z,71.07543945
2023-03-26T01:49:43.465Z,71.28295898
2023-03-26T01:50:43.914Z,71.28295898
2023-03-26T01:51:44.383Z,71.28295898
2023-03-26T01:52:44.834Z,71.07543945
2023-03-26T01:53:45.280Z,70.97167969
2023-03-26T01:54:45.850Z,71.07543945
2023-03-26T01:55:46.251Z,71.28295898
2023-03-26T01:56:46.802Z,71.38671875
2023-03-26T01:57:47.229Z,71.484375
2023-03-26T01:58:47.676Z,71.58813477
2023-03-26T01:59:48.167Z,71.484375
2023-03-26T02:00:48.649Z,71.38671875
2023-03-26T02:01:49.169Z,70.73364258
2023-03-26T02:02:49.659Z,70.12329102
2023-03-26T02:03:50.543Z,69.91577148
2023-03-26T02:05:21.363Z,69.81201172
2023-03-26T02:06:21.756Z,69.94628906
2023-03-26T02:07:22.250Z,70.15380859
2023-03-26T02:08:22.716Z,70.45898438
2023-03-26T02:09:23.207Z,70.66650391
2023-03-26T02:10:23.766Z,70.97167969
2023-03-26T02:11:33.545Z,70.77026367
2023-03-26T02:12:24.764Z,70.56274414
2023-03-26T02:13:25.231Z,70.66650391
2023-03-26T02:14:25.749Z,70.87402344
2023-03-26T02:15:26.276Z,70.66650391
2023-03-26T02:16:26.679Z,70.45898438
2023-03-26T02:17:27.183Z,70.36132813
2023-03-26T02:18:27.635Z,70.45898438
2023-03-26T02:19:28.070Z,70.77026367
2023-03-26T02:20:28.566Z,70.97167969
2023-03-26T02:21:29.015Z,70.87402344
2023-03-26T02:22:29.452Z,70.97167969
2023-03-26T02:23:29.908Z,70.77026367
2023-03-26T02:24:30.406Z,70.77026367
2023-03-26T02:25:30.886Z,70.97167969
2023-03-26T02:26:31.349Z,71.17919922
2023-03-26T02:27:31.820Z,71.38671875
2023-03-26T02:29:02.436Z,71.07543945
2023-03-26T02:30:33.190Z,70.87402344
2023-03-26T02:31:33.681Z,70.66650391
2023-03-26T02:32:34.106Z,70.87402344
2023-03-26T02:33:34.539Z,71.07543945
2023-03-26T02:34:35.051Z,71.17919922
2023-03-26T02:35:35.655Z,71.17919922
2023-03-26T02:36:36.346Z,71.07543945
2023-03-26T02:37:36.711Z,70.87402344
2023-03-26T02:38:37.187Z,70.97167969
2023-03-26T02:39:37.616Z,70.97167969
2023-03-26T02:40:38.063Z,71.17919922
2023-03-26T02:41:38.485Z,70.97167969
2023-03-26T02:42:38.989Z,70.56274414
2023-03-26T02:43:39.454Z,70.36132813
2023-03-26T02:44:39.866Z,70.25756836
2023-03-26T02:45:40.384Z,70.66650391
2023-03-26T02:46:40.750Z,70.77026367
2023-03-26T02:47:41.336Z,70.97167969
2023-03-26T02:48:41.731Z,70.97167969
2023-03-26T02:49:42.280Z,71.07543945
2023-03-26T02:50:42.817Z,71.17919922
2023-03-26T02:51:43.128Z,71.17919922
2023-03-26T02:52:43.610Z,71.2097168
2023-03-26T02:53:44.034Z,71.28295898
2023-03-26T02:54:44.508Z,71.38671875
2023-03-26T02:55:45.002Z,71.38671875
2023-03-26T02:56:45.583Z,71.28295898
2023-03-26T02:57:45.989Z,71.07543945
2023-03-26T02:58:46.524Z,71.17919922
2023-03-26T02:59:46.990Z,71.07543945
2023-03-26T03:00:47.512Z,71.28295898
2023-03-26T03:01:47.982Z,71.07543945
2023-03-26T03:02:48.806Z,71.31347656
2023-03-26T03:03:48.859Z,71.52099609
2023-03-26T03:04:49.826Z,71.28295898
2023-03-26T03:06:20.575Z,71.28295898
2023-03-26T03:07:20.980Z,71.07543945
2023-03-26T03:08:21.450Z,71.07543945
2023-03-26T03:09:21.835Z,71.07543945
2023-03-26T03:10:22.313Z,71.11206055
2023-03-26T03:11:22.776Z,71.2097168
2023-03-26T03:12:23.266Z,71.11206055
2023-03-26T03:13:23.665Z,71.2097168
2023-03-26T03:14:24.089Z,71.52099609
2023-03-26T03:15:24.630Z,71.72241211
2023-03-26T03:16:25.279Z,71.92993164
2023-03-26T03:17:25.738Z,72.03369141
2023-03-26T03:18:26.184Z,72.03369141
2023-03-26T03:19:26.598Z,71.92993164
2023-03-26T03:20:27.060Z,71.62475586
2023-03-26T03:21:27.542Z,71.31347656
2023-03-26T03:22:27.986Z,71.31347656
2023-03-26T03:23:28.471Z,71.41723633
2023-03-26T03:24:28.889Z,71.52099609
2023-03-26T03:25:29.350Z,71.62475586
2023-03-26T03:26:29.964Z,71.62475586
2023-03-26T03:27:30.322Z,71.41723633
2023-03-26T03:28:30.806Z,71.31347656
2023-03-26T03:29:31.251Z,71.2097168
2023-03-26T03:30:31.686Z,71.2097168
2023-03-26T03:31:32.538Z,71.2097168
2023-03-26T03:32:32.800Z,71.41723633
2023-03-26T03:33:33.461Z,71.52099609
2023-03-26T03:34:33.923Z,71.52099609
2023-03-26T03:35:34.397Z,71.62475586
2023-03-26T03:36:34.846Z,71.72241211
2023-03-26T03:37:35.252Z,71.72241211
2023-03-26T03:38:35.689Z,71.72241211
2023-03-26T03:39:36.487Z,71.62475586
2023-03-26T03:40:36.973Z,71.62475586
2023-03-26T03:41:37.452Z,71.52099609
2023-03-26T03:42:37.852Z,71.28295898
2023-03-26T03:43:38.302Z,71.07543945
2023-03-26T03:44:38.761Z,70.77026367
2023-03-26T03:45:39.274Z,70.77026367
2023-03-26T03:46:39.797Z,70.77026367
2023-03-26T03:47:40.282Z,70.87402344
2023-03-26T03:48:40.677Z,70.97167969
2023-03-26T03:49:41.087Z,70.77026367
2023-03-26T03:50:41.585Z,70.66650391
2023-03-26T03:51:42.083Z,70.66650391
2023-03-26T03:52:42.512Z,70.97167969
2023-03-26T03:53:43.010Z,71.17919922
2023-03-26T03:54:43.467Z,71.17919922
2023-03-26T03:55:43.930Z,71.17919922
2023-03-26T03:56:44.600Z,71.28295898
2023-03-26T03:57:44.933Z,71.28295898
2023-03-26T03:58:45.362Z,71.17919922
2023-03-26T03:59:47.638Z,70.97167969
2023-03-26T04:00:46.250Z,70.87402344
2023-03-26T04:01:46.875Z,70.97167969
2023-03-26T04:02:47.414Z,70.87402344
2023-03-26T04:03:48.045Z,70.87402344
2023-03-26T04:04:48.352Z,70.87402344
2023-03-26T04:06:19.434Z,70.66650391
2023-03-26T04:07:19.842Z,70.66650391
2023-03-26T04:08:20.310Z,70.66650391
2023-03-26T04:09:20.798Z,70.66650391
2023-03-26T04:10:21.243Z,70.66650391
2023-03-26T04:11:21.662Z,70.66650391
2023-03-26T04:12:22.213Z,70.66650391
2023-03-26T04:13:22.710Z,70.45898438
2023-03-26T04:14:23.173Z,70.45898438
2023-03-26T04:15:23.659Z,70.25756836
2023-03-26T04:16:24.108Z,70.05004883
2023-03-26T04:17:24.572Z,70.05004883
2023-03-26T04:18:24.954Z,70.15380859
2023-03-26T04:19:25.421Z,70.25756836
2023-03-26T04:20:25.951Z,70.36132813
2023-03-26T04:21:26.485Z,70.56274414
2023-03-26T04:22:26.957Z,70.77026367
2023-03-26T04:23:27.398Z,70.87402344
2023-03-26T04:24:27.890Z,71.07543945
2023-03-26T04:25:28.396Z,71.17919922
2023-03-26T04:26:28.853Z,71.28295898
2023-03-26T04:27:29.330Z,71.07543945
2023-03-26T04:28:29.786Z,70.77026367
2023-03-26T04:29:30.299Z,70.56274414
2023-03-26T04:30:30.787Z,70.56274414
2023-03-26T04:31:31.342Z,70.87402344
2023-03-26T04:32:31.779Z,71.28295898
2023-03-26T04:33:32.481Z,71.69189453
2023-03-26T04:34:32.955Z,71.7956543
2023-03-26T04:35:33.408Z,71.484375
2023-03-26T04:36:33.832Z,71.38671875
2023-03-26T04:37:34.454Z,71.58813477
2023-03-26T04:38:34.831Z,71.58813477
2023-03-26T04:39:35.312Z,71.58813477
2023-03-26T04:40:35.766Z,71.7956543
2023-03-26T04:41:36.219Z,71.89941406
2023-03-26T04:42:36.733Z,72.10083008
2023-03-26T04:43:37.163Z,72.20458984
2023-03-26T04:44:37.599Z,72.41210938
2023-03-26T04:45:38.037Z,72.61352539
2023-03-26T04:46:38.521Z,72.61352539
2023-03-26T04:47:39.111Z,72.50976563
2023-03-26T04:48:39.431Z,72.50976563
2023-03-26T04:49:39.906Z,72.50976563
2023-03-26T04:50:40.347Z,72.61352539
2023-03-26T04:51:40.778Z,72.82104492
2023-03-26T04:52:43.208Z,72.82104492
2023-03-26T04:53:41.627Z,72.82104492
2023-03-26T04:54:42.172Z,73.1262207
2023-03-26T04:55:42.631Z,73.4375
2023-03-26T04:56:43.128Z,73.4375
2023-03-26T04:57:43.573Z,73.57177734
2023-03-26T04:58:43.993Z,73.77929688
2023-03-26T04:59:44.517Z,73.98071289
2023-03-26T05:00:44.972Z,74.08447266
2023-03-26T05:01:45.471Z,74.04785156
2023-03-26T05:02:46.029Z,74.15161133
2023-03-26T05:03:46.471Z,74.15161133
2023-03-26T05:04:46.946Z,74.04785156
2023-03-26T05:05:47.452Z,73.84643555
2023-03-26T05:06:48.389Z,73.63891602
2023-03-26T05:08:19.052Z,73.74267578
2023-03-26T05:09:19.476Z,73.84643555
2023-03-26T05:10:19.885Z,73.74267578
2023-03-26T05:11:20.377Z,73.74267578
2023-03-26T05:12:20.861Z,73.74267578
2023-03-26T05:13:21.472Z,73.95019531
2023-03-26T05:14:21.832Z,74.15161133
2023-03-26T05:15:22.312Z,73.95019531
2023-03-26T05:16:22.693Z,73.84643555
2023-03-26T05:17:23.248Z,73.74267578
2023-03-26T05:18:23.667Z,73.95019531
2023-03-26T05:19:24.137Z,74.04785156
2023-03-26T05:20:24.644Z,73.74267578
2023-03-26T05:21:25.142Z,73.63891602
2023-03-26T05:22:25.579Z,73.74267578
2023-03-26T05:23:26.063Z,73.84643555
2023-03-26T05:24:26.515Z,73.95019531
2023-03-26T05:25:27.131Z,74.04785156
2023-03-26T05:26:27.522Z,73.95019531
2023-03-26T05:27:27.977Z,73.84643555
2023-03-26T05:28:28.485Z,73.4375
2023-03-26T05:29:28.882Z,73.22998047
2023-03-26T05:30:29.352Z,73.1262207
2023-03-26T05:31:29.818Z,73.02246094
2023-03-26T05:32:30.328Z,73.02246094
2023-03-26T05:33:30.793Z,73.02246094
2023-03-26T05:34:31.154Z,73.1262207
2023-03-26T05:35:31.629Z,73.4375
2023-03-26T05:36:32.055Z,73.4375
2023-03-26T05:37:32.611Z,73.74267578
2023-03-26T05:38:33.051Z,73.84643555
2023-03-26T05:39:33.497Z,74.04785156
2023-03-26T05:40:33.980Z,74.15161133
2023-03-26T05:41:34.436Z,74.35913086
2023-03-26T05:42:34.857Z,74.25537109
2023-03-26T05:43:35.317Z,74.46289063
2023-03-26T05:44:35.680Z,74.46289063
2023-03-26T05:45:36.178Z,74.46289063
2023-03-26T05:46:36.858Z,74.56665039
2023-03-26T05:47:37.202Z,74.66430664
2023-03-26T05:48:37.679Z,74.87182617
2023-03-26T05:49:38.039Z,74.97558594
2023-03-26T05:50:38.457Z,75.0793457
2023-03-26T05:51:39.012Z,75.38452148
2023-03-26T05:52:39.434Z,75.48828125
2023-03-26T05:53:39.934Z,75.48828125
2023-03-26T05:54:40.352Z,75.68969727
2023-03-26T05:55:40.768Z,75.8972168
2023-03-26T05:56:41.200Z,76.20239258
2023-03-26T05:57:41.748Z,76.30615234
2023-03-26T05:58:42.231Z,76.40991211
2023-03-26T05:59:42.673Z,76.81884766
2023-03-26T06:00:43.098Z,77.13012695
2023-03-26T06:01:43.529Z,77.2277832
2023-03-26T06:02:44.053Z,77.2277832
2023-03-26T06:03:44.793Z,77.43530273
2023-03-26T06:04:45.058Z,77.5390625
2023-03-26T06:05:45.447Z,77.43530273
2023-03-26T06:06:45.995Z,77.2277832
2023-03-26T06:07:46.416Z,77.02636719
2023-03-26T06:08:47.020Z,77.2277832
2023-03-26T06:10:18.823Z,77.33154297
2023-03-26T06:11:18.339Z,77.5390625
2023-03-26T06:12:18.769Z,77.84423828
2023-03-26T06:13:19.210Z,78.05175781
2023-03-26T06:14:19.769Z,78.25317383
2023-03-26T06:15:20.216Z,78.35693359
2023-03-26T06:16:26.267Z,78.46069336
2023-03-26T06:17:21.260Z,78.77197266
2023-03-26T06:18:21.748Z,78.66821289
2023-03-26T06:19:22.158Z,78.66821289
2023-03-26T06:20:22.632Z,78.56445313
2023-03-26T06:21:23.100Z,78.46069336
2023-03-26T06:22:23.553Z,78.56445313
2023-03-26T06:23:23.993Z,78.66821289
2023-03-26T06:24:24.439Z,78.97338867
2023-03-26T06:25:24.885Z,78.86962891
2023-03-26T06:26:25.374Z,78.56445313
2023-03-26T06:27:25.820Z,78.56445313
2023-03-26T06:28:26.233Z,78.97338867
2023-03-26T06:29:26.677Z,79.1809082
2023-03-26T06:30:27.224Z,79.07714844
2023-03-26T06:31:27.768Z,78.97338867
2023-03-26T06:32:28.167Z,78.86962891
2023-03-26T06:33:28.619Z,78.73535156
2023-03-26T06:34:29.166Z,78.77197266
2023-03-26T06:35:29.486Z,78.97338867
2023-03-26T06:36:29.951Z,79.1809082
2023-03-26T06:37:30.469Z,79.28466797
2023-03-26T06:38:30.962Z,79.79736328
2023-03-26T06:39:31.533Z,79.89501953
2023-03-26T06:40:31.859Z,79.79736328
2023-03-26T06:41:32.522Z,79.79736328
2023-03-26T06:43:07.107Z,79.89501953
2023-03-26T06:43:33.436Z,79.89501953
2023-03-26T06:44:33.904Z,79.28466797
2023-03-26T06:45:34.312Z,78.42407227
2023-03-26T06:46:34.767Z,78.11889648
2023-03-26T06:47:35.225Z,78.25317383
2023-03-26T06:48:35.657Z,78.35693359
2023-03-26T06:49:36.189Z,78.52783203
2023-03-26T06:50:36.604Z,78.77197266
2023-03-26T06:51:37.047Z,78.93676758
2023-03-26T06:52:37.480Z,79.04052734
2023-03-26T06:53:37.948Z,78.93676758
2023-03-26T06:54:38.462Z,79.04052734
2023-03-26T06:55:38.925Z,79.24194336
2023-03-26T06:56:39.384Z,79.44946289
2023-03-26T06:57:39.942Z,79.65698242
2023-03-26T06:58:40.574Z,79.65698242
2023-03-26T06:59:41.412Z,79.24194336
2023-03-26T07:00:41.857Z,78.93676758
2023-03-26T07:01:42.279Z,78.93676758
2023-03-26T07:02:42.767Z,78.93676758
2023-03-26T07:03:43.190Z,79.04052734
2023-03-26T07:04:43.635Z,79.04052734
2023-03-26T07:05:44.139Z,79.04052734
2023-03-26T07:06:44.677Z,79.24194336
2023-03-26T07:07:46.605Z,79.79736328
2023-03-26T07:08:45.547Z,80.10253906
2023-03-26T07:09:45.993Z,80.20629883
2023-03-26T07:10:46.965Z,80.40771484
2023-03-26T07:12:17.692Z,80.71899414
2023-03-26T07:13:18.279Z,80.92041016
2023-03-26T07:14:18.761Z,81.02416992
2023-03-26T07:15:19.237Z,81.12792969
2023-03-26T07:16:19.803Z,81.12792969
2023-03-26T07:17:20.139Z,81.33544922
2023-03-26T07:18:20.743Z,81.43310547
2023-03-26T07:19:21.186Z,81.43310547
2023-03-26T07:20:21.620Z,81.43310547
2023-03-26T07:21:22.076Z,81.640625
2023-03-26T07:22:22.618Z,81.640625
2023-03-26T07:23:23.257Z,81.53686523
2023-03-26T07:24:23.516Z,81.640625
2023-03-26T07:25:23.958Z,81.74438477
2023-03-26T07:26:24.410Z,81.74438477
2023-03-26T07:27:24.890Z,81.74438477
2023-03-26T07:28:25.458Z,81.70776367
2023-03-26T07:29:25.825Z,81.80541992
2023-03-26T07:30:26.290Z,81.80541992
2023-03-26T07:31:26.966Z,81.70776367
2023-03-26T07:32:27.362Z,81.39648438
2023-03-26T07:33:27.946Z,81.29272461
2023-03-26T07:34:28.269Z,81.09130859
2023-03-26T07:35:28.791Z,81.19506836
2023-03-26T07:36:29.138Z,81.50024414
2023-03-26T07:37:29.619Z,81.50024414
2023-03-26T07:38:30.156Z,81.60400391
2023-03-26T07:39:30.575Z,81.70776367
2023-03-26T07:40:31.108Z,81.70776367
2023-03-26T07:41:31.539Z,81.70776367
2023-03-26T07:42:31.975Z,81.29272461
2023-03-26T07:43:32.571Z,81.0546875
2023-03-26T07:44:34.080Z,81.0546875
2023-03-26T07:45:33.575Z,81.0546875
2023-03-26T07:46:34.021Z,81.29272461
2023-03-26T07:47:34.495Z,81.29272461
2023-03-26T07:48:34.902Z,81.50024414
2023-03-26T07:49:35.288Z,81.50024414
2023-03-26T07:50:35.753Z,81.60400391
2023-03-26T07:51:36.253Z,81.80541992
2023-03-26T07:52:36.688Z,82.01293945
2023-03-26T07:53:37.157Z,82.11669922
2023-03-26T07:54:37.559Z,81.70776367
2023-03-26T07:55:38.050Z,81.35986328
2023-03-26T07:56:38.644Z,81.35986328
2023-03-26T07:57:39.027Z,80.33447266
2023-03-26T07:58:39.467Z,79.71801758
2023-03-26T07:59:39.861Z,79.20532227
2023-03-26T08:00:40.263Z,78.90014648
2023-03-26T08:01:40.760Z,77.97851563
2023-03-26T08:02:41.292Z,77.67333984
2023-03-26T08:03:41.860Z,77.77099609
2023-03-26T08:04:42.279Z,77.42919922
2023-03-26T08:05:42.618Z,77.2277832
2023-03-26T08:06:43.171Z,77.12402344
2023-03-26T08:07:43.635Z,75.89111328
2023-03-26T08:08:44.180Z,75.99487305
2023-03-26T08:09:44.595Z,75.99487305
2023-03-26T08:10:45.056Z,75.95825195
2023-03-26T08:11:45.514Z,75.65307617
2023-03-26T08:13:16.528Z,75.34790039
2023-03-26T08:14:16.979Z,75.24414063
2023-03-26T08:15:17.403Z,75.24414063
2023-03-26T08:16:17.856Z,75.24414063
2023-03-26T08:17:18.273Z,75.24414063
2023-03-26T08:18:18.861Z,75.24414063
2023-03-26T08:19:19.424Z,75.54931641
2023-03-26T08:20:19.793Z,76.12915039
2023-03-26T08:21:20.193Z,73.57177734
2023-03-26T08:22:20.632Z,73.57177734
2023-03-26T08:23:21.117Z,73.57177734
2023-03-26T08:24:21.588Z,73.98071289
2023-03-26T08:25:22.057Z,73.26660156
2023-03-26T08:26:22.528Z,73.67553711
2023-03-26T08:27:23.013Z,73.1628418
2023-03-26T08:28:23.358Z,72.44873047
2023-03-26T08:29:23.952Z,72.54638672
2023-03-26T08:30:24.370Z,72.3449707
2023-03-26T08:31:24.921Z,72.3449707
2023-03-26T08:32:25.289Z,72.3449707
2023-03-26T08:33:25.682Z,72.65014648
2023-03-26T08:34:26.196Z,72.65014648
2023-03-26T08:35:26.663Z,72.3449707
2023-03-26T08:36:27.109Z,72.41210938
2023-03-26T08:37:27.636Z,71.59423828
2023-03-26T08:38:28.121Z,71.69799805
2023-03-26T08:39:28.763Z,71.18530273
2023-03-26T08:40:29.181Z,71.08154297
2023-03-26T08:41:29.701Z,70.77636719
2023-03-26T08:42:30.256Z,70.36743164
2023-03-26T08:43:30.707Z,70.36743164
2023-03-26T08:44:31.291Z,70.56884766
2023-03-26T08:45:31.705Z,70.67260742
2023-03-26T08:46:32.387Z,70.36743164
2023-03-26T08:47:33.035Z,70.26367188
2023-03-26T08:48:33.413Z,70.56884766
2023-03-26T08:49:33.871Z,70.26367188
2023-03-26T08:50:34.335Z,70.47119141
2023-03-26T08:51:34.906Z,70.47119141
2023-03-26T08:52:35.376Z,70.43457031
2023-03-26T08:53:35.834Z,70.84350586
2023-03-26T08:54:36.391Z,70.84350586
2023-03-26T08:55:36.699Z,70.94726563
2023-03-26T08:56:37.192Z,70.02563477
2023-03-26T08:57:37.721Z,70.02563477
2023-03-26T08:58:38.182Z,69.82421875
2023-03-26T08:59:38.700Z,69.72045898
2023-03-26T09:00:39.001Z,69.61669922
2023-03-26T09:01:39.543Z,69.31152344
2023-03-26T09:02:39.998Z,69.51904297
2023-03-26T09:03:40.469Z,69.61669922
2023-03-26T09:04:41.012Z,69.28100586
2023-03-26T09:05:41.345Z,69.00634766
2023-03-26T09:06:41.785Z,68.359375
2023-03-26T09:07:42.240Z,67.74902344
2023-03-26T09:08:54.128Z,68.359375
2023-03-26T09:09:43.223Z,68.76831055
2023-03-26T09:10:43.730Z,69.07348633
2023-03-26T09:11:44.146Z,68.87207031
2023-03-26T09:12:44.580Z,68.56689453
2023-03-26T09:14:15.813Z,68.76831055
2023-03-26T09:15:16.334Z,68.66455078
2023-03-26T09:16:16.966Z,68.66455078
2023-03-26T09:17:17.346Z,67.84667969
2023-03-26T09:18:18.007Z,67.95043945
2023-03-26T09:19:18.416Z,68.05419922
2023-03-26T09:20:18.913Z,67.95043945
2023-03-26T09:21:19.378Z,67.13256836
2023-03-26T09:22:19.891Z,66.61987305
2023-03-26T09:23:20.421Z,66.41845703
2023-03-26T09:24:20.919Z,66.5222168
2023-03-26T09:25:21.439Z,66.58935547
2023-03-26T09:26:21.929Z,65.97900391
2023-03-26T09:27:22.339Z,65.57006836
2023-03-26T09:28:22.810Z,65.57006836
2023-03-26T09:29:23.260Z,65.77148438
2023-03-26T09:30:23.747Z,65.57006836
2023-03-26T09:31:24.292Z,65.36865234
2023-03-26T09:32:24.723Z,65.36865234
2023-03-26T09:33:25.173Z,65.46630859
2023-03-26T09:34:25.690Z,65.36865234
2023-03-26T09:35:26.225Z,64.85595703
2023-03-26T09:36:26.723Z,64.75219727
2023-03-26T09:37:27.235Z,65.16113281
2023-03-26T09:38:27.745Z,65.36865234
2023-03-26T09:39:28.201Z,65.67382813
2023-03-26T09:40:28.712Z,65.57006836
2023-03-26T09:41:29.364Z,65.97900391
2023-03-26T09:42:29.878Z,66.08276367
2023-03-26T09:43:30.353Z,66.08276367
2023-03-26T09:44:30.796Z,66.28417969
2023-03-26T09:45:31.382Z,66.08276367
2023-03-26T09:46:31.815Z,66.08276367
2023-03-26T09:47:32.673Z,66.28417969
2023-03-26T09:48:33.195Z,65.77148438
2023-03-26T09:49:33.685Z,65.57006836
2023-03-26T09:50:34.218Z,65.87524414
2023-03-26T09:51:34.630Z,66.28417969
2023-03-26T09:52:35.145Z,66.38793945
2023-03-26T09:53:35.653Z,66.08276367
2023-03-26T09:54:36.093Z,65.77148438
2023-03-26T09:55:36.512Z,65.97900391
2023-03-26T09:56:39.096Z,65.46630859
2023-03-26T09:57:37.522Z,65.77148438
2023-03-26T09:58:37.911Z,65.67382813
2023-03-26T09:59:38.354Z,65.36865234
2023-03-26T10:00:38.794Z,65.77148438
2023-03-26T10:01:39.307Z,65.97900391
2023-03-26T10:02:46.634Z,66.28417969
2023-03-26T10:03:40.150Z,66.2109375
2023-03-26T10:04:40.627Z,66.00952148
2023-03-26T10:05:41.128Z,66.11328125
2023-03-26T10:06:41.605Z,66.41845703
2023-03-26T10:07:42.083Z,66.2109375
2023-03-26T10:08:42.715Z,66.28417969
2023-03-26T10:09:43.220Z,66.00952148
2023-03-26T10:10:43.725Z,66.00952148
2023-03-26T10:11:44.646Z,66.31469727
2023-03-26T10:13:15.507Z,66.41845703
2023-03-26T10:14:15.839Z,66.28417969
2023-03-26T10:15:16.312Z,66.49169922
2023-03-26T10:16:16.737Z,66.49169922
2023-03-26T10:17:17.187Z,66.49169922
2023-03-26T10:18:27.070Z,66.49169922
2023-03-26T10:19:18.309Z,66.58935547
2023-03-26T10:20:18.746Z,66.58935547
2023-03-26T10:21:19.211Z,66.28417969
2023-03-26T10:22:19.692Z,66.45507813
2023-03-26T10:23:20.167Z,66.76635742
2023-03-26T10:24:20.706Z,66.05224609
2023-03-26T10:25:21.221Z,66.05224609
2023-03-26T10:26:21.744Z,65.64331055
2023-03-26T10:27:24.699Z,65.7409668
2023-03-26T10:28:23.021Z,65.64331055
2023-03-26T10:29:23.541Z,65.7409668
2023-03-26T10:30:23.984Z,65.53955078
2023-03-26T10:31:24.563Z,65.64331055
2023-03-26T10:32:25.044Z,65.53955078
2023-03-26T10:33:25.607Z,65.33813477
2023-03-26T10:34:28.998Z,65.43579102
2023-03-26T10:35:26.528Z,65.87524414
2023-03-26T10:36:27.033Z,65.77148438
2023-03-26T10:37:27.566Z,66.08276367
2023-03-26T10:38:28.004Z,66.25366211
2023-03-26T10:39:37.636Z,66.14990234
2023-03-26T10:40:29.017Z,65.84472656
2023-03-26T10:41:29.498Z,65.94848633
2023-03-26T10:42:30.175Z,65.94848633
2023-03-26T10:43:30.783Z,66.05224609
2023-03-26T10:44:31.295Z,65.64331055
2023-03-26T10:45:31.810Z,65.64331055
2023-03-26T10:46:32.650Z,65.81420898
2023-03-26T10:47:33.086Z,65.30761719
2023-03-26T10:48:33.594Z,65.20385742
2023-03-26T10:49:34.071Z,64.48974609
2023-03-26T10:50:34.551Z,64.28222656
2023-03-26T10:51:35.038Z,64.38598633
2023-03-26T10:52:35.534Z,64.18457031
2023-03-26T10:53:36.056Z,64.38598633
2023-03-26T10:54:36.504Z,64.79492188
2023-03-26T10:55:36.973Z,63.671875
2023-03-26T10:56:37.446Z,63.06152344
2023-03-26T10:57:37.880Z,63.15917969
2023-03-26T10:58:48.822Z,63.13476563
2023-03-26T10:59:38.818Z,62.82348633
2023-03-26T11:00:39.292Z,61.80419922
2023-03-26T11:01:39.871Z,61.90795898